Time;durP1;ratioP1;P1;durP2;ratioP2;P2;SDS_P1;SDS_P2;PMS_P1;PMS_P2;Temp;Humidity;BMP_temperature;BMP_pressure;BME280_temperature;BME280_humidity;BME280_pressure;Samples;Min_cycle;Max_cycle;Signal;HPM_P1;HPM_P2
2022/09/06 00:01:41;;;;;;;2.20;0.82;;;;;;;17.88;49.63;101154.75;4893390;28;98320;-64
2022/09/06 00:04:09;;;;;;;2.60;1.00;;;;;;;17.86;49.78;101155.06;4866343;28;97922;-72
2022/09/06 00:06:37;;;;;;;4.50;0.85;;;;;;;17.84;49.86;101161.91;4913017;28;98056;-64
2022/09/06 00:09:09;;;;;;;2.28;0.93;;;;;;;17.80;49.60;101158.16;4872539;28;98094;-64
2022/09/06 00:11:38;;;;;;;;;;;;;;;17.80;49.03;101156.28;4867200;28;98159;-72
2022/09/06 00:14:07;;;;;;;3.45;1.42;;;;;;;17.73;49.67;101157.72;4882349;28;98432;-72
2022/09/06 00:16:36;;;;;;;1.88;0.88;;;;;;;17.72;49.81;101158.81;4868084;28;98242;-64
2022/09/06 00:19:04;;;;;;;3.35;1.20;;;;;;;17.70;49.74;101155.59;4885011;28;98544;-64
2022/09/06 00:21:34;;;;;;;2.70;1.20;;;;;;;17.67;49.78;101146.09;4881509;28;98192;-64
2022/09/06 00:24:02;;;;;;;2.38;1.25;;;;;;;17.67;49.90;101151.53;4885113;28;98148;-72
2022/09/06 00:26:32;;;;;;;2.85;1.17;;;;;;;17.65;49.78;101151.03;4882663;28;98348;-64
2022/09/06 00:29:00;;;;;;;2.78;1.30;;;;;;;17.64;49.95;101149.41;4881540;28;98340;-72
2022/09/06 00:31:28;;;;;;;2.13;1.20;;;;;;;17.60;49.96;101149.19;4875261;28;98170;-73
2022/09/06 00:33:56;;;;;;;2.03;1.08;;;;;;;17.59;49.95;101149.50;4888757;28;98382;-72
2022/09/06 00:36:25;;;;;;;2.53;1.30;;;;;;;17.57;49.95;101146.28;4863382;28;97993;-64
2022/09/06 00:38:55;;;;;;;2.20;1.00;;;;;;;17.55;50.00;101141.09;4868240;28;98190;-72
2022/09/06 00:41:24;;;;;;;1.80;1.00;;;;;;;17.54;50.00;101135.97;4882227;28;98283;-64
2022/09/06 00:43:53;;;;;;;2.67;1.10;;;;;;;17.50;49.97;101137.66;4858347;28;97823;-71
2022/09/06 00:46:29;;;;;;;3.47;1.60;;;;;;;17.43;49.91;101136.13;4866493;28;98123;-72
2022/09/06 00:49:08;;;;;;;2.67;1.15;;;;;;;17.42;49.54;101139.16;4884324;28;98147;-72
2022/09/06 00:51:37;;;;;;;2.55;1.20;;;;;;;17.37;50.20;101139.22;4856822;28;98149;-64
2022/09/06 00:54:06;;;;;;;1.23;0.82;;;;;;;17.37;50.19;101141.94;4862482;28;98363;-72
2022/09/06 00:56:35;;;;;;;3.17;1.30;;;;;;;17.34;50.07;101140.63;4866112;28;98539;-72
2022/09/06 00:59:03;;;;;;;3.33;1.42;;;;;;;17.31;50.10;101149.38;4870371;28;98459;-73
2022/09/06 01:01:32;;;;;;;2.08;1.15;;;;;;;17.31;50.20;101151.31;4870809;28;98264;-64
2022/09/06 01:04:00;;;;;;;3.15;1.35;;;;;;;17.28;50.08;101149.16;4895990;28;98248;-72
2022/09/06 01:06:53;;;;;;;2.67;1.13;;;;;;;17.25;50.07;101147.03;4893574;28;98110;-71
2022/09/06 01:09:55;;;;;;;2.95;1.25;;;;;;;17.23;49.97;101143.81;4899685;28;98373;-72
2022/09/06 01:12:32;;;;;;;2.75;1.15;;;;;;;17.18;50.01;101139.25;4906161;28;98383;-64
2022/09/06 01:15:41;;;;;;;3.35;1.10;;;;;;;17.18;49.92;101148.22;4894802;28;98227;-64
2022/09/06 01:18:46;;;;;;;2.65;1.20;;;;;;;17.16;49.98;101149.63;4893731;28;98075;-64
2022/09/06 01:21:31;;;;;;;5.63;0.82;;;;;;;17.13;50.05;101155.66;4894537;28;97802;-64
2022/09/06 01:24:41;;;;;;;4.15;1.13;;;;;;;17.13;49.65;101151.03;4880575;28;98053;-73
2022/09/06 01:27:25;;;;;;;1.52;0.82;;;;;;;17.11;49.81;101153.22;4916059;28;98098;-64
2022/09/06 01:30:09;;;;;;;1.98;1.25;;;;;;;17.10;50.08;101150.81;4884904;28;98176;-64
2022/09/06 01:32:56;;;;;;;2.30;1.02;;;;;;;17.07;49.88;101157.66;4886188;28;98375;-64
2022/09/06 01:36:03;;;;;;;4.32;1.13;;;;;;;17.09;49.89;101157.34;4882869;28;98098;-64
2022/09/06 01:38:31;;;;;;;3.55;1.23;;;;;;;17.07;50.11;101159.56;4880766;28;97979;-72
2022/09/06 01:40:58;;;;;;;3.42;1.08;;;;;;;17.05;50.12;101159.84;4878216;28;98105;-64
2022/09/06 01:43:38;;;;;;;1.60;0.80;;;;;;;17.07;50.17;101152.19;4897687;28;98284;-72
2022/09/06 01:46:52;;;;;;;2.22;1.20;;;;;;;17.14;50.04;101152.66;4891739;28;98326;-71
2022/09/06 01:49:30;;;;;;;2.97;1.00;;;;;;;17.20;49.96;101155.28;4888011;28;98603;-71
2022/09/06 01:52:36;;;;;;;3.33;1.05;;;;;;;17.26;49.80;101152.19;4896209;28;98180;-72
2022/09/06 01:55:18;;;;;;;2.80;1.05;;;;;;;17.26;50.05;101156.84;4888947;28;98327;-64
2022/09/06 01:58:21;;;;;;;3.05;1.10;;;;;;;17.30;49.74;101155.94;4922447;28;98179;-64
2022/09/06 02:01:41;;;;;;;3.33;1.17;;;;;;;17.28;49.91;101154.63;4904024;28;98249;-72
2022/09/06 02:04:46;;;;;;;2.08;0.95;;;;;;;17.31;49.74;101152.13;4853606;28;98575;-72
2022/09/06 02:07:40;;;;;;;2.72;1.20;;;;;;;17.34;49.63;101153.44;4861414;28;98821;-65
2022/09/06 02:10:30;;;;;;;2.30;0.93;;;;;;;17.32;49.81;101148.28;4902053;28;98054;-65
2022/09/06 02:12:58;;;;;;;2.08;1.08;;;;;;;17.29;49.79;101146.16;4884680;28;98119;-64
2022/09/06 02:15:31;;;;;;;2.53;1.23;;;;;;;17.29;49.82;101157.06;4880820;28;98372;-72
2022/09/06 02:18:10;;;;;;;2.75;1.10;;;;;;;17.29;49.86;101157.06;4873985;28;98031;-64
2022/09/06 02:20:42;;;;;;;1.63;0.70;;;;;;;17.27;49.76;101147.56;4855837;28;98169;-64
2022/09/06 02:23:09;;;;;;;1.88;1.00;;;;;;;17.23;49.90;101146.53;4864482;28;98213;-65
2022/09/06 02:25:44;;;;;;;2.67;1.00;;;;;;;17.19;49.63;101154.47;4867757;28;98183;-64
2022/09/06 02:28:11;;;;;;;2.13;0.80;;;;;;;17.17;49.83;101151.22;4885120;28;98789;-71
2022/09/06 02:30:51;;;;;;;1.63;0.70;;;;;;;17.13;49.69;101145.59;4881194;28;98233;-64
2022/09/06 02:33:22;;;;;;;3.03;0.88;;;;;;;17.10;49.79;101148.09;4875634;28;98448;-71
2022/09/06 02:35:51;;;;;;;1.73;1.00;;;;;;;17.08;49.79;101136.66;4884213;28;97981;-71
2022/09/06 02:38:20;;;;;;;2.45;1.02;;;;;;;17.09;49.92;101144.53;4861347;28;98422;-71
2022/09/06 02:40:47;;;;;;;2.70;0.80;;;;;;;17.07;49.90;101145.94;4860906;28;97993;-64
2022/09/06 02:43:15;;;;;;;1.23;0.65;;;;;;;17.07;49.74;101140.50;4868149;28;98262;-71
2022/09/06 02:45:48;;;;;;;1.95;0.90;;;;;;;17.05;49.67;101137.25;4856969;28;98363;-64
2022/09/06 02:48:16;;;;;;;2.70;0.90;;;;;;;17.04;49.62;101141.09;4864584;28;98699;-64
2022/09/06 02:50:43;;;;;;;3.00;0.90;;;;;;;17.02;49.57;101149.56;4886826;28;98358;-72
2022/09/06 02:53:13;;;;;;;1.85;0.90;;;;;;;16.98;49.32;101137.63;4881268;28;97917;-64
2022/09/06 02:55:41;;;;;;;1.42;0.77;;;;;;;16.93;49.50;101148.56;4883506;28;98197;-64
2022/09/06 02:58:13;;;;;;;1.20;0.65;;;;;;;16.90;49.53;101151.91;4869812;28;98147;-72
2022/09/06 03:00:40;;;;;;;2.42;1.02;;;;;;;16.86;49.50;101146.22;4865205;28;98053;-72
2022/09/06 03:03:08;;;;;;;1.73;0.80;;;;;;;16.84;49.46;101142.97;4862272;28;98472;-64
2022/09/06 03:05:36;;;;;;;1.70;0.98;;;;;;;16.80;49.59;101149.31;4863815;28;98023;-64
2022/09/06 03:08:05;;;;;;;2.15;0.65;;;;;;;16.77;49.37;101145.25;4876132;28;98016;-71
2022/09/06 03:10:32;;;;;;;2.38;0.90;;;;;;;16.73;49.55;101143.38;4867253;28;98318;-64
2022/09/06 03:13:01;;;;;;;2.72;0.80;;;;;;;16.71;49.41;101143.69;4860131;28;99630;-72
2022/09/06 03:15:33;;;;;;;1.48;0.70;;;;;;;16.68;49.38;101144.25;4882073;28;99321;-65
2022/09/06 03:18:01;;;;;;;4.35;0.50;;;;;;;16.65;49.40;101140.19;4884433;28;98325;-71
2022/09/06 03:20:30;;;;;;;2.38;0.73;;;;;;;16.64;49.59;101135.06;4865567;28;97996;-64
2022/09/06 03:22:58;;;;;;;3.97;0.75;;;;;;;16.62;49.47;101131.81;4865992;28;98074;-64
2022/09/06 03:25:26;;;;;;;3.13;0.80;;;;;;;16.60;49.34;101134.03;4890569;28;98264;-72
2022/09/06 03:27:55;;;;;;;1.92;0.75;;;;;;;16.60;49.36;101140.28;4885778;28;98362;-64
2022/09/06 03:30:22;;;;;;;3.38;0.90;;;;;;;16.58;49.58;101133.47;4871168;28;99350;-64
2022/09/06 03:32:51;;;;;;;2.33;0.77;;;;;;;16.56;49.39;101128.34;4878006;28;98626;-64
2022/09/06 03:35:19;;;;;;;1.67;0.70;;;;;;;16.58;49.50;101137.00;4857148;28;99251;-64
2022/09/06 03:37:47;;;;;;;2.42;0.80;;;;;;;16.58;49.48;101134.28;4857171;28;98405;-64
2022/09/06 03:40:15;;;;;;;2.47;0.82;;;;;;;16.57;49.30;101135.41;4856942;28;98082;-72
2022/09/06 03:42:45;;;;;;;1.25;0.70;;;;;;;16.56;49.21;101128.34;4838308;28;98294;-72
2022/09/06 03:45:14;;;;;;;1.90;0.73;;;;;;;16.57;49.31;101124.50;4853628;28;98218;-64
2022/09/06 03:47:43;;;;;;;1.17;0.63;;;;;;;16.55;49.13;101126.72;4831848;28;98406;-73
2022/09/06 03:50:11;;;;;;;2.22;0.80;;;;;;;16.54;49.18;101116.13;4868844;28;97967;-72
2022/09/06 03:52:43;;;;;;;1.98;0.93;;;;;;;16.52;49.24;101119.16;4891840;28;98303;-64
2022/09/06 03:55:13;;;;;;;1.33;0.68;;;;;;;16.52;49.04;101113.69;4858187;28;98136;-71
2022/09/06 03:57:41;;;;;;;1.35;0.70;;;;;;;16.51;49.20;101111.28;4857482;28;98254;-64
2022/09/06 04:00:10;;;;;;;3.90;0.77;;;;;;;16.51;49.18;101119.44;4859140;28;99819;-71
2022/09/06 04:02:40;;;;;;;6.70;1.02;;;;;;;16.51;49.49;101108.56;4876433;28;98134;-72
2022/09/06 04:05:08;;;;;;;3.22;0.70;;;;;;;16.51;49.16;101117.53;4860409;28;98009;-71
2022/09/06 04:07:36;;;;;;;1.35;0.57;;;;;;;16.51;49.27;101116.72;4892453;28;98304;-65
2022/09/06 04:10:04;;;;;;;1.63;0.50;;;;;;;16.50;49.39;101112.38;4861547;28;99508;-71
2022/09/06 04:12:33;;;;;;;2.08;0.63;;;;;;;16.50;49.20;101106.91;4873884;28;98111;-71
2022/09/06 04:15:01;;;;;;;1.25;0.55;;;;;;;16.47;49.42;101102.91;4859772;28;97806;-71
2022/09/06 04:17:32;;;;;;;1.42;0.70;;;;;;;16.45;49.22;101103.16;4854636;28;98226;-72
2022/09/06 04:20:00;;;;;;;1.30;0.60;;;;;;;16.43;49.23;101104.56;4874464;28;98275;-64
2022/09/06 04:22:27;;;;;;;1.95;0.43;;;;;;;16.42;49.55;101102.94;4889882;28;98201;-64
2022/09/06 04:25:00;;;;;;;1.60;0.50;;;;;;;16.38;49.45;101097.25;4862218;28;98876;-64
2022/09/06 04:27:27;;;;;;;1.58;0.50;;;;;;;16.38;49.30;101091.81;4874210;28;98051;-64
2022/09/06 04:29:55;;;;;;;1.98;0.52;;;;;;;16.36;49.56;101099.47;4889423;28;98180;-71
2022/09/06 04:32:23;;;;;;;1.88;0.60;;;;;;;16.36;49.21;101101.41;4838485;28;98299;-71
2022/09/06 04:34:51;;;;;;;2.05;0.75;;;;;;;16.34;48.85;101107.09;4840723;28;98177;-72
2022/09/06 04:37:21;;;;;;;2.00;0.65;;;;;;;16.34;49.39;101106.31;4853861;28;98354;-64
2022/09/06 04:39:50;;;;;;;1.40;0.60;;;;;;;16.32;49.47;101106.59;4843121;28;98089;-72
2022/09/06 04:42:18;;;;;;;2.17;0.82;;;;;;;16.30;49.58;101110.69;4850164;28;98131;-64
2022/09/06 04:44:46;;;;;;;3.10;0.70;;;;;;;16.29;49.20;101103.66;4839324;28;98179;-72
2022/09/06 04:47:18;;;;;;;1.50;0.75;;;;;;;16.26;49.58;101105.03;4841553;28;98109;-72
2022/09/06 04:49:49;;;;;;;3.93;0.70;;;;;;;16.26;49.37;101107.75;4845959;28;98257;-71
2022/09/06 04:52:17;;;;;;;2.10;0.85;;;;;;;16.29;49.37;101112.63;4843564;28;98485;-68
2022/09/06 04:54:48;;;;;;;2.90;0.70;;;;;;;16.27;49.34;101112.09;4837103;28;98392;-72
2022/09/06 04:57:17;;;;;;;1.60;0.45;;;;;;;16.29;49.29;101111.81;4844595;28;100305;-64
2022/09/06 04:59:47;;;;;;;1.38;0.60;;;;;;;16.29;49.36;101112.63;4861846;28;98346;-72
2022/09/06 05:02:18;;;;;;;3.28;0.70;;;;;;;16.30;49.48;101111.50;4860136;28;98143;-64
2022/09/06 05:04:52;;;;;;;1.40;0.70;;;;;;;16.34;49.31;101106.31;4867261;28;98248;-64
2022/09/06 05:11:14;;;;;;;1.97;0.60;;;;;;;16.36;49.14;101107.63;4963290;23;98330;-71
2022/09/06 05:13:49;;;;;;;1.10;0.50;;;;;;;16.37;49.16;101108.44;4930795;28;98232;-71
2022/09/06 05:16:17;;;;;;;1.60;0.60;;;;;;;16.40;49.47;101114.13;4896954;28;98634;-73
2022/09/06 05:18:45;;;;;;;1.88;0.50;;;;;;;16.45;49.46;101115.97;4878904;28;98719;-72
2022/09/06 05:21:14;;;;;;;1.35;0.43;;;;;;;16.47;49.25;101119.22;4875316;28;98176;-73
2022/09/06 05:23:44;;;;;;;2.13;0.82;;;;;;;16.52;49.14;101121.06;4882070;28;98124;-72
2022/09/06 05:26:20;;;;;;;1.83;0.60;;;;;;;16.52;49.09;101108.25;4899096;28;98471;-72
2022/09/06 05:28:50;;;;;;;1.60;0.50;;;;;;;16.56;49.15;101103.03;4886123;28;98378;-72
2022/09/06 05:31:35;;;;;;;2.25;0.50;;;;;;;16.67;48.76;101102.63;4862939;28;98302;-72
2022/09/06 05:34:04;;;;;;;4.00;0.75;;;;;;;16.63;48.82;101111.66;4877383;28;97947;-71
2022/09/06 05:36:34;;;;;;;3.28;0.55;;;;;;;16.62;49.35;101112.75;4881894;28;98233;-66
2022/09/06 05:39:02;;;;;;;1.38;0.50;;;;;;;16.64;49.98;101105.91;4880674;28;98405;-71
2022/09/06 05:41:31;;;;;;;2.10;0.50;;;;;;;16.71;49.86;101110.22;4880214;28;98547;-65
2022/09/06 05:43:59;;;;;;;2.17;0.50;;;;;;;16.73;50.56;101106.09;4873423;28;98497;-66
2022/09/06 05:46:31;;;;;;;1.27;0.50;;;;;;;16.78;50.05;101100.63;4881451;28;98772;-72
2022/09/06 05:49:03;;;;;;;3.92;0.80;;;;;;;16.86;49.96;101099.94;4867938;28;98573;-72
2022/09/06 05:51:33;;;;;;;1.08;0.40;;;;;;;16.99;50.21;101094.88;4893683;28;98715;-65
2022/09/06 05:54:12;;;;;;;2.13;0.65;;;;;;;17.10;49.65;101083.53;4879077;28;98319;-66
2022/09/06 05:56:40;;;;;;;1.45;0.52;;;;;;;17.28;49.82;101075.63;4867877;28;98465;-72
2022/09/06 05:59:07;;;;;;;1.67;0.52;;;;;;;17.42;49.26;101073.75;4882429;28;98507;-65
2022/09/06 06:01:40;;;;;;;5.55;0.70;;;;;;;17.59;49.04;101060.34;4876910;28;98306;-72
2022/09/06 06:04:08;;;;;;;0.95;0.50;;;;;;;17.73;49.11;101063.13;4888643;28;98003;-65
2022/09/06 06:06:35;;;;;;;1.20;0.50;;;;;;;17.87;48.98;101069.41;4877927;28;98219;-73
2022/09/06 06:09:03;;;;;;;6.22;0.82;;;;;;;18.05;48.90;101069.63;4872167;28;98338;-72
2022/09/06 06:11:31;;;;;;;3.97;0.77;;;;;;;18.18;48.68;101068.00;4890939;28;99296;-65
2022/09/06 06:13:59;;;;;;;1.42;0.60;;;;;;;18.18;49.53;101068.81;4873006;28;98326;-66
2022/09/06 06:16:27;;;;;;;2.00;0.85;;;;;;;18.18;48.82;101076.19;4872417;28;98362;-65
2022/09/06 06:18:59;;;;;;;2.25;0.70;;;;;;;18.14;48.88;101082.25;4875249;28;98435;-72
2022/09/06 06:21:31;;;;;;;4.87;0.90;;;;;;;18.11;49.00;101088.31;4878067;28;98548;-65
2022/09/06 06:24:00;;;;;;;2.63;0.80;;;;;;;18.10;49.37;101089.44;4876662;28;98184;-72
2022/09/06 06:26:40;;;;;;;2.45;0.95;;;;;;;18.13;49.15;101088.84;4862328;28;99236;-65
2022/09/06 06:29:08;;;;;;;1.75;0.85;;;;;;;18.14;49.74;101084.97;4872598;28;98492;-65
2022/09/06 06:31:38;;;;;;;1.67;1.00;;;;;;;18.18;49.61;101092.56;4854976;28;98435;-72
2022/09/06 06:34:06;;;;;;;1.73;0.80;;;;;;;18.21;49.65;101090.03;4868296;28;98186;-66
2022/09/06 06:36:35;;;;;;;1.98;0.82;;;;;;;18.25;49.37;101093.78;4873184;28;98210;-72
2022/09/06 06:39:07;;;;;;;2.03;1.05;;;;;;;18.29;49.45;101100.25;4873359;28;98497;-66
2022/09/06 06:41:34;;;;;;;1.60;0.80;;;;;;;18.32;49.57;101088.72;4875175;28;98130;-65
2022/09/06 06:44:05;;;;;;;1.65;0.88;;;;;;;18.34;49.35;101091.16;4891811;28;98125;-72
2022/09/06 06:46:36;;;;;;;1.85;0.85;;;;;;;18.34;49.44;101081.03;4858142;28;98109;-65
2022/09/06 06:49:07;;;;;;;2.15;1.13;;;;;;;18.35;49.49;101077.22;4869376;28;98053;-73
2022/09/06 06:51:36;;;;;;;2.92;0.93;;;;;;;18.36;50.04;101067.09;4889842;28;98138;-66
2022/09/06 06:54:04;;;;;;;3.75;0.65;;;;;;;18.37;50.20;101072.25;4854343;28;98288;-73
2022/09/06 06:56:37;;;;;;;1.65;0.93;;;;;;;18.38;49.96;101078.50;4923497;28;97983;-65
2022/09/06 06:59:06;;;;;;;2.30;0.90;;;;;;;18.40;50.08;101077.09;4891565;28;98408;-74
2022/09/06 07:01:35;;;;;;;1.73;0.80;;;;;;;18.44;50.06;101088.22;4859474;28;97891;-66
2022/09/06 07:04:13;;;;;;;1.70;0.80;;;;;;;18.48;49.67;101099.34;4878938;28;97987;-66
2022/09/06 07:06:48;;;;;;;1.98;0.95;;;;;;;18.51;50.07;101096.81;4877664;28;99013;-66
2022/09/06 07:09:17;;;;;;;2.83;0.90;;;;;;;18.54;49.95;101089.91;4873404;28;98254;-65
2022/09/06 07:11:47;;;;;;;3.05;1.08;;;;;;;18.57;50.18;101092.84;4876509;28;98170;-66
2022/09/06 07:14:16;;;;;;;1.70;0.88;;;;;;;18.62;49.67;101094.66;4874726;28;98218;-65
2022/09/06 07:16:44;;;;;;;2.42;0.98;;;;;;;18.61;49.98;101096.56;4868578;28;98260;-73
2022/09/06 07:19:11;;;;;;;2.47;0.68;;;;;;;18.67;49.85;101096.44;4893984;28;98378;-73
2022/09/06 07:21:44;;;;;;;1.98;0.70;;;;;;;18.73;49.79;101096.06;4906147;28;98347;-74
2022/09/06 07:24:13;;;;;;;3.42;1.00;;;;;;;18.80;49.71;101092.94;4879608;28;98181;-73
2022/09/06 07:26:42;;;;;;;2.65;0.80;;;;;;;18.83;49.82;101098.59;4877719;28;98471;-66
2022/09/06 07:29:13;;;;;;;2.50;1.00;;;;;;;18.87;49.62;101091.41;4861843;28;98164;-66
2022/09/06 07:31:41;;;;;;;2.97;0.80;;;;;;;18.91;49.68;101091.59;4905467;28;97985;-66
2022/09/06 07:34:10;;;;;;;3.35;0.77;;;;;;;18.94;49.44;101088.22;4879364;28;98159;-74
2022/09/06 07:36:37;;;;;;;7.47;1.05;;;;;;;19.00;49.76;101087.00;4880415;28;98633;-73
2022/09/06 07:39:09;;;;;;;1.88;1.08;;;;;;;19.08;49.63;101088.19;4907403;28;98246;-66
2022/09/06 07:41:38;;;;;;;2.38;0.77;;;;;;;19.18;49.36;101090.69;4903740;28;98001;-74
2022/09/06 07:44:09;;;;;;;2.03;0.82;;;;;;;19.28;49.31;101084.16;4894043;28;98634;-73
2022/09/06 07:46:38;;;;;;;3.13;1.00;;;;;;;19.35;49.39;101085.34;4859770;28;98566;-66
2022/09/06 07:49:06;;;;;;;1.73;0.80;;;;;;;19.45;49.45;101089.72;4880694;28;98067;-66
2022/09/06 07:51:34;;;;;;;3.45;0.90;;;;;;;19.57;49.64;101084.53;4873283;28;98434;-66
2022/09/06 07:54:09;;;;;;;5.18;1.10;;;;;;;19.66;49.24;101089.25;4879877;28;98129;-74
2022/09/06 07:56:39;;;;;;;2.72;0.85;;;;;;;19.74;49.38;101100.25;4860123;28;98182;-66
2022/09/06 07:59:06;;;;;;;2.85;0.75;;;;;;;19.77;48.98;101101.53;4860007;28;99899;-66
2022/09/06 08:01:41;;;;;;;1.80;0.95;;;;;;;19.77;49.11;101098.81;4895081;28;98149;-74
2022/09/06 08:04:11;;;;;;;3.30;0.50;;;;;;;19.75;49.38;101096.38;4879397;28;98424;-74
2022/09/06 08:06:48;;;;;;;2.85;0.93;;;;;;;19.74;49.42;101099.44;4862600;28;99272;-74
2022/09/06 08:09:16;;;;;;;2.95;0.80;;;;;;;19.76;49.27;101091.72;4895695;28;98066;-66
2022/09/06 08:11:44;;;;;;;2.90;1.00;;;;;;;19.77;49.28;101088.69;4880663;28;98039;-74
2022/09/06 08:14:13;;;;;;;2.08;0.75;;;;;;;19.78;49.39;101082.06;4885267;28;97971;-66
2022/09/06 08:16:41;;;;;;;4.95;0.90;;;;;;;19.79;49.60;101082.88;4877813;28;98569;-66
2022/09/06 08:19:11;;;;;;;2.67;0.90;;;;;;;19.80;49.88;101090.75;4881559;28;98293;-74
2022/09/06 08:21:38;;;;;;;1.35;0.70;;;;;;;19.82;49.62;101088.53;4898950;28;98555;-74
2022/09/06 08:24:08;;;;;;;1.80;0.77;;;;;;;19.86;49.50;101092.25;4894406;28;98087;-74
2022/09/06 08:26:41;;;;;;;2.78;0.70;;;;;;;19.89;49.43;101090.81;4896603;28;98210;-74
2022/09/06 08:29:12;;;;;;;2.03;0.77;;;;;;;20.00;49.44;101092.16;4867009;28;98415;-66
2022/09/06 08:31:42;;;;;;;3.15;0.93;;;;;;;20.11;49.23;101087.19;4875443;28;98229;-74
2022/09/06 08:34:15;;;;;;;1.63;0.73;;;;;;;20.23;49.01;101089.31;4877300;28;98439;-66
2022/09/06 08:36:44;;;;;;;1.67;0.88;;;;;;;20.37;49.01;101090.03;4860549;28;98201;-66
2022/09/06 08:39:12;;;;;;;1.27;0.70;;;;;;;20.48;48.93;101085.06;4881841;28;99003;-66
2022/09/06 08:41:53;;;;;;;1.13;0.60;;;;;;;20.55;48.80;101082.66;4878101;28;98193;-75
2022/09/06 08:44:25;;;;;;;1.35;0.70;;;;;;;20.60;48.96;101088.00;4900577;28;98665;-66
2022/09/06 08:47:00;;;;;;;3.20;1.00;;;;;;;20.67;48.59;101077.41;4874110;28;98350;-74
2022/09/06 08:49:30;;;;;;;3.00;1.08;;;;;;;20.74;48.86;101079.63;4877570;28;98058;-66
2022/09/06 08:52:45;;;;;;;2.03;0.73;;;;;;;20.83;48.54;101072.25;4878380;28;98047;-66
2022/09/06 08:55:38;;;;;;;1.65;0.70;;;;;;;20.94;48.37;101078.19;4898475;28;98130;-66
2022/09/06 08:58:58;;;;;;;2.15;0.73;;;;;;;20.99;48.46;101075.31;4907363;28;98287;-74
2022/09/06 09:01:31;;;;;;;2.88;0.70;;;;;;;20.96;48.69;101074.00;4906787;28;98435;-66
2022/09/06 09:03:59;;;;;;;5.25;0.82;;;;;;;20.96;48.70;101065.78;4900201;28;98026;-74
2022/09/06 09:06:26;;;;;;;1.60;0.68;;;;;;;20.97;48.80;101066.59;4889695;28;97936;-66
2022/09/06 09:09:07;;;;;;;1.63;0.60;;;;;;;20.97;48.84;101058.38;4861810;28;98240;-67
2022/09/06 09:11:35;;;;;;;2.83;0.80;;;;;;;20.96;48.92;101065.00;4885341;28;98110;-73
2022/09/06 09:14:21;;;;;;;2.45;0.77;;;;;;;21.03;48.73;101057.91;4878332;28;98236;-73
2022/09/06 09:16:52;;;;;;;3.30;0.80;;;;;;;21.07;48.62;101049.84;4887759;28;98219;-74
2022/09/06 09:19:20;;;;;;;2.72;0.73;;;;;;;21.17;48.59;101048.69;4876080;28;98301;-74
2022/09/06 09:21:55;;;;;;;1.63;0.98;;;;;;;21.36;48.53;101051.09;4857468;28;98691;-67
2022/09/06 09:24:24;;;;;;;2.00;0.98;;;;;;;21.51;48.29;101043.16;4860570;28;98169;-74
2022/09/06 09:27:03;;;;;;;3.03;1.10;;;;;;;21.64;48.06;101044.09;4861879;28;98174;-73
2022/09/06 09:29:30;;;;;;;1.73;0.70;;;;;;;21.74;48.13;101037.44;4876521;28;98154;-68
2022/09/06 09:31:58;;;;;;;2.65;0.90;;;;;;;21.86;48.05;101029.31;4867481;28;98284;-74
2022/09/06 09:34:33;;;;;;;1.33;0.70;;;;;;;21.98;47.96;101034.91;4883357;28;99884;-67
2022/09/06 09:37:26;;;;;;;1.65;0.70;;;;;;;22.18;47.67;101036.13;4893589;28;97979;-66
2022/09/06 09:39:55;;;;;;;2.05;0.80;;;;;;;22.20;47.83;101033.03;4893138;28;98369;-67
2022/09/06 09:42:38;;;;;;;4.07;0.90;;;;;;;22.28;47.66;101034.94;4875278;28;98059;-67
2022/09/06 09:45:29;;;;;;;2.55;0.77;;;;;;;22.36;47.43;101034.09;4876781;28;99389;-75
2022/09/06 09:47:58;;;;;;;2.10;1.08;;;;;;;22.36;47.88;101036.00;4875901;28;98051;-74
2022/09/06 09:50:34;;;;;;;1.95;0.90;;;;;;;22.42;47.59;101031.94;4859917;28;98097;-66
2022/09/06 09:53:20;;;;;;;3.10;0.70;;;;;;;22.52;47.64;101031.56;4852186;28;98156;-67
2022/09/06 09:55:53;;;;;;;1.88;0.75;;;;;;;22.54;47.29;101024.56;4891041;28;98423;-74
2022/09/06 09:58:31;;;;;;;2.95;0.80;;;;;;;22.65;47.12;101022.22;4874124;28;97924;-67
2022/09/06 10:01:19;;;;;;;2.45;0.90;;;;;;;22.79;47.21;101019.19;4908000;28;98668;-73
2022/09/06 10:03:47;;;;;;;3.45;1.10;;;;;;;22.86;47.37;101013.16;4898456;28;97962;-66
2022/09/06 10:06:17;;;;;;;2.22;0.90;;;;;;;23.00;46.89;101013.72;4891863;28;98503;-74
2022/09/06 10:08:48;;;;;;;2.08;0.85;;;;;;;23.14;46.83;101022.47;4873746;28;98464;-66
2022/09/06 10:11:54;;;;;;;3.53;0.90;;;;;;;23.26;46.73;101013.44;4895411;28;98718;-67
2022/09/06 10:14:29;;;;;;;3.10;1.23;;;;;;;23.47;46.61;101016.94;4884105;28;98290;-75
2022/09/06 10:16:57;;;;;;;2.00;0.70;;;;;;;23.72;45.91;101006.00;4888198;28;98608;-67
2022/09/06 10:19:44;;;;;;;4.57;0.93;;;;;;;23.96;45.89;101008.75;4887765;28;98232;-74
2022/09/06 10:22:34;;;;;;;2.55;0.95;;;;;;;24.23;45.32;101001.72;4894840;28;99055;-74
2022/09/06 10:25:15;;;;;;;1.42;0.73;;;;;;;24.28;45.46;101008.94;4879280;28;97999;-66
2022/09/06 10:28:02;;;;;;;2.95;1.17;;;;;;;24.30;45.23;101005.84;4887420;28;98865;-66
2022/09/06 10:30:30;;;;;;;3.25;1.10;;;;;;;24.15;45.60;101002.66;4868709;28;98073;-66
2022/09/06 10:33:33;;;;;;;2.10;1.08;;;;;;;24.09;46.06;101001.28;4874005;28;98071;-75
2022/09/06 10:36:01;;;;;;;1.27;0.85;;;;;;;23.88;45.90;100995.91;4892804;28;97778;-66
2022/09/06 10:38:52;;;;;;;2.33;1.00;;;;;;;23.71;46.22;100988.69;4890236;28;97944;-66
2022/09/06 10:42:08;;;;;;;1.58;0.90;;;;;;;23.55;46.54;100992.44;4870967;28;99209;-74
2022/09/06 10:44:40;;;;;;;1.88;1.02;;;;;;;23.34;46.65;100979.53;4856549;28;97965;-67
2022/09/06 10:47:15;;;;;;;1.40;0.75;;;;;;;23.23;46.52;100984.69;4903666;28;98239;-67
2022/09/06 10:49:47;;;;;;;3.60;1.00;;;;;;;23.14;46.77;100977.66;4896145;28;98120;-74
2022/09/06 10:52:35;;;;;;;;;;;;;;;23.18;46.61;100971.16;4895583;28;99495;-67
2022/09/06 10:55:08;;;;;;;2.67;1.17;;;;;;;23.07;46.67;100964.50;4907118;28;98099;-74
2022/09/06 10:58:03;;;;;;;3.70;1.20;;;;;;;23.18;46.77;100953.84;4887937;28;98229;-75
2022/09/06 11:00:45;;;;;;;1.67;1.00;;;;;;;23.23;46.11;100957.19;4870028;28;98118;-66
2022/09/06 11:03:23;;;;;;;1.88;0.85;;;;;;;23.41;46.08;100968.00;4893962;28;98102;-67
2022/09/06 11:05:53;;;;;;;3.88;1.00;;;;;;;23.66;46.06;100961.41;4861562;28;98445;-75
2022/09/06 11:08:30;;;;;;;2.25;1.08;;;;;;;23.97;45.48;100971.00;4861462;28;98074;-74
2022/09/06 11:10:57;;;;;;;2.10;0.90;;;;;;;24.34;45.25;100965.44;4875593;28;98217;-67
2022/09/06 11:13:27;;;;;;;2.70;1.20;;;;;;;24.67;44.65;100963.28;4888375;28;98231;-76
2022/09/06 11:16:09;;;;;;;2.03;1.30;;;;;;;24.96;44.17;100967.63;4861460;28;98371;-67
2022/09/06 11:18:45;;;;;;;2.35;0.98;;;;;;;25.26;43.87;100966.44;4872881;28;98173;-66
2022/09/06 11:21:45;;;;;;;1.90;1.00;;;;;;;25.51;43.44;100956.06;4903220;28;98081;-75
2022/09/06 11:24:40;;;;;;;1.70;0.90;;;;;;;26.04;43.01;100953.75;4891211;28;98824;-67
2022/09/06 11:27:25;;;;;;;3.42;1.20;;;;;;;26.40;42.46;100950.59;4889116;28;97902;-75
2022/09/06 11:29:56;;;;;;;2.20;0.90;;;;;;;26.47;42.34;100949.97;4877109;28;98427;-68
2022/09/06 11:32:36;;;;;;;1.50;1.05;;;;;;;26.40;42.84;100944.28;4872082;28;97893;-75
2022/09/06 11:35:08;;;;;;;3.40;1.30;;;;;;;26.74;42.23;100942.63;4889118;28;98541;-67
2022/09/06 11:37:48;;;;;;;3.58;1.20;;;;;;;27.05;41.77;100943.59;4895174;28;98140;-76
2022/09/06 11:40:22;;;;;;;1.63;1.10;;;;;;;26.91;41.88;100941.34;4886511;28;98156;-67
2022/09/06 11:42:48;;;;;;;2.75;1.05;;;;;;;26.75;42.04;100941.44;4893364;28;98326;-77
2022/09/06 11:45:20;;;;;;;1.08;0.70;;;;;;;26.77;42.13;100943.88;4935966;28;98409;-68
2022/09/06 11:47:47;;;;;;;2.00;1.30;;;;;;;26.76;42.11;100939.47;4891828;28;98725;-76
2022/09/06 11:50:27;;;;;;;2.65;1.10;;;;;;;26.75;42.28;100946.19;4898296;28;98325;-77
2022/09/06 11:53:06;;;;;;;;;;;;;;;27.02;42.00;100934.06;4923073;28;98218;-76
2022/09/06 11:56:07;;;;;;;2.35;1.08;;;;;;;27.02;42.27;100925.75;4920475;28;98467;-76
2022/09/06 12:01:19;;;;;;;2.35;0.98;;;;;;;27.24;41.83;100931.72;4987302;22;125297;-68
2022/09/06 12:03:51;;;;;;;2.58;1.00;;;;;;;27.04;41.92;100939.22;4927887;28;98352;-67
2022/09/06 12:06:42;;;;;;;3.08;1.30;;;;;;;26.85;42.49;100931.78;4935927;28;97925;-76